Saturday, February 24, 2018, 12:05 PM CST
Back to Local

KGYY, Gary Regional

Location: Gary, IN, United States Lat: 41.617
Local Time: 12:05 PM CST (18:05 GMT) Lon: -87.417
Time Zone: US/Central Elev: 590 ft

Show me the last for .
Show Decoded

2018-02-24 10:45 METAR KGYY 241645Z 09006KT 10SM OVC017 05/02 A3010 =
2018-02-24 09:45 METAR KGYY 241545Z 05011KT 10SM OVC090 03/01 A3014 =
2018-02-24 08:45 METAR KGYY 241445Z 08010KT 10SM OVC090 03/00 A3017 =
2018-02-24 07:45 METAR KGYY 241345Z 05009KT 10SM OVC090 02/00 A3017 =
2018-02-24 06:45 METAR KGYY 241245Z 04009KT 10SM OVC090 02/00 A3018 =
2018-02-24 05:45 METAR KGYY 241145Z 04004KT 5SM BR BKN020 02/00 A3019 =
2018-02-24 04:45 METAR KGYY 241045Z 03009KT 5SM BKN020 02/01 A3019 =
2018-02-24 04:15 METAR KGYY 241015Z AUTO 03007KT 7SM OVC021 02/01 A3021 RMK AO2 T00200005 =
2018-02-24 03:55 METAR KGYY 240955Z AUTO 03007KT 7SM OVC021 02/00 A3022 RMK AO2 T00180001 =
2018-02-24 03:35 METAR KGYY 240935Z AUTO 03007KT 7SM OVC021 02/00 A3023 RMK AO2 T00180000 =
2018-02-24 03:15 METAR KGYY 240915Z AUTO 02006KT 7SM SCT021 BKN110 02/00 A3023 RMK AO2 T00180000
                 =
2018-02-24 02:55 METAR KGYY 240855Z AUTO 01008KT 10SM CLR 02/00 A3023 RMK AO2 T00201001 =
2018-02-24 02:35 METAR KGYY 240835Z AUTO 01006KT 7SM SCT018 02/00 A3024 RMK AO2 T00200000 =
2018-02-24 02:15 METAR KGYY 240815Z AUTO 01007KT 10SM OVC018 02/00 A3024 RMK AO2 T00210000 =
2018-02-24 01:55 METAR KGYY 240755Z AUTO 01006KT 10SM OVC018 02/00 A3024 RMK AO2 T00220000 =
2018-02-24 01:35 METAR KGYY 240735Z AUTO 36008KT 10SM OVC018 02/00 A3024 RMK AO2 T00240000 =
2018-02-24 01:15 METAR KGYY 240715Z AUTO 01008KT 10SM OVC018 03/00 A3024 RMK AO2 T00250000 =
2018-02-24 00:55 METAR KGYY 240655Z AUTO 01009KT 7SM OVC018 03/00 A3023 RMK AO2 T00250001 =
2018-02-24 00:35 METAR KGYY 240635Z AUTO 36009KT 10SM OVC018 03/00 A3025 RMK AO2 T00280003 =
2018-02-24 00:15 METAR KGYY 240615Z AUTO 36010KT 10SM OVC018 04/00 A3025 RMK AO2 T00350003 =
2018-02-23 23:55 METAR KGYY 240555Z AUTO 35006KT 10SM OVC018 04/01 A3026 RMK AO2 T00400008 10043
                 20037 400800037 =
2018-02-23 23:35 METAR KGYY 240535Z AUTO 30004KT 10SM OVC018 04/01 A3025 RMK AO2 T00400010 =
2018-02-23 23:15 METAR KGYY 240515Z AUTO 28004KT 10SM OVC018 04/01 A3026 RMK AO2 T00400012 =
2018-02-23 22:55 METAR KGYY 240455Z AUTO 27004KT 10SM OVC018 04/01 A3026 RMK AO2 T00420011 =
2018-02-23 22:35 METAR KGYY 240435Z AUTO 24003KT 10SM OVC020 04/01 A3027 RMK AO2 T00400012 =
2018-02-23 22:15 METAR KGYY 240415Z AUTO 00000KT 10SM OVC020 04/01 A3027 RMK AO2 T00380012 =
2018-02-23 21:45 METAR KGYY 240345Z 26004KT 10SM OVC020 04/01 A3027 =
2018-02-23 20:45 METAR KGYY 240245Z VRB03KT 10SM OVC018 04/01 A3026 =
2018-02-23 19:45 METAR KGYY 240145Z 26006KT 10SM OVC016 04/01 A3027 =
2018-02-23 18:45 METAR KGYY 240045Z 27008KT 10SM OVC012 04/01 A3027 =
2018-02-23 17:45 METAR KGYY 232345Z 27010KT 10SM OVC012 04/01 A3026 =
2018-02-23 16:45 METAR KGYY 232245Z 26012KT 10SM OVC012 05/02 A3024 =
2018-02-23 15:45 METAR KGYY 232145Z 25015KT 10SM OVC012 05/02 A3023 =
2018-02-23 14:45 METAR KGYY 232045Z COR 25013G24KT 10SM OVC012 06/03 A3020 =
2018-02-23 13:45 METAR KGYY 231945Z 25019KT 10SM OVC012 06/03 A3020 =

Support USWX by starting your Amazon purchase here.